sensor_id;sensor_type;location;lat;lon;timestamp;P1;durP1;ratioP1;P2;durP2;ratioP2
79149;SDS011;68563;45.644;13.782;2023-06-05T00:00:29;11.27;;;8.05;;
79149;SDS011;68563;45.644;13.782;2023-06-05T00:02:55;9.07;;;8.18;;
79149;SDS011;68563;45.644;13.782;2023-06-05T00:05:20;8.82;;;7.75;;
79149;SDS011;68563;45.644;13.782;2023-06-05T00:07:46;11.93;;;8.60;;
79149;SDS011;68563;45.644;13.782;2023-06-05T00:10:11;10.82;;;8.63;;
79149;SDS011;68563;45.644;13.782;2023-06-05T00:12:38;9.05;;;8.10;;
79149;SDS011;68563;45.644;13.782;2023-06-05T00:15:05;9.48;;;8.27;;
79149;SDS011;68563;45.644;13.782;2023-06-05T00:17:31;10.27;;;8.57;;
79149;SDS011;68563;45.644;13.782;2023-06-05T00:19:57;10.55;;;7.97;;
79149;SDS011;68563;45.644;13.782;2023-06-05T00:22:25;9.43;;;8.00;;
79149;SDS011;68563;45.644;13.782;2023-06-05T00:24:51;9.18;;;8.30;;
79149;SDS011;68563;45.644;13.782;2023-06-05T00:27:17;9.98;;;8.32;;
79149;SDS011;68563;45.644;13.782;2023-06-05T00:29:43;9.00;;;8.07;;
79149;SDS011;68563;45.644;13.782;2023-06-05T00:32:08;9.80;;;8.20;;
79149;SDS011;68563;45.644;13.782;2023-06-05T00:34:34;9.02;;;8.13;;
79149;SDS011;68563;45.644;13.782;2023-06-05T00:36:59;9.73;;;8.50;;
79149;SDS011;68563;45.644;13.782;2023-06-05T00:39:25;11.57;;;8.43;;
79149;SDS011;68563;45.644;13.782;2023-06-05T00:41:50;10.20;;;8.10;;
79149;SDS011;68563;45.644;13.782;2023-06-05T00:44:17;10.27;;;7.43;;
79149;SDS011;68563;45.644;13.782;2023-06-05T00:46:43;8.55;;;7.70;;
79149;SDS011;68563;45.644;13.782;2023-06-05T00:49:08;10.10;;;7.70;;
79149;SDS011;68563;45.644;13.782;2023-06-05T00:51:35;8.90;;;7.55;;
79149;SDS011;68563;45.644;13.782;2023-06-05T00:54:01;8.35;;;7.53;;
79149;SDS011;68563;45.644;13.782;2023-06-05T00:56:27;8.50;;;7.68;;
79149;SDS011;68563;45.644;13.782;2023-06-05T00:58:52;10.13;;;7.95;;
79149;SDS011;68563;45.644;13.782;2023-06-05T01:01:19;9.13;;;8.23;;
79149;SDS011;68563;45.644;13.782;2023-06-05T01:03:46;10.13;;;7.97;;
79149;SDS011;68563;45.644;13.782;2023-06-05T01:06:12;12.73;;;7.75;;
79149;SDS011;68563;45.644;13.782;2023-06-05T01:08:38;9.77;;;7.32;;
79149;SDS011;68563;45.644;13.782;2023-06-05T01:11:05;8.25;;;7.32;;
79149;SDS011;68563;45.644;13.782;2023-06-05T01:13:46;7.57;;;6.88;;
79149;SDS011;68563;45.644;13.782;2023-06-05T01:16:19;8.70;;;7.78;;
79149;SDS011;68563;45.644;13.782;2023-06-05T01:18:56;10.13;;;7.60;;
79149;SDS011;68563;45.644;13.782;2023-06-05T01:21:27;7.18;;;6.38;;
79149;SDS011;68563;45.644;13.782;2023-06-05T01:23:54;9.55;;;8.02;;
79149;SDS011;68563;45.644;13.782;2023-06-05T01:26:20;11.13;;;7.70;;
79149;SDS011;68563;45.644;13.782;2023-06-05T01:28:51;8.07;;;7.28;;
79149;SDS011;68563;45.644;13.782;2023-06-05T01:31:18;9.82;;;7.68;;
79149;SDS011;68563;45.644;13.782;2023-06-05T01:33:48;8.55;;;7.30;;
79149;SDS011;68563;45.644;13.782;2023-06-05T01:36:21;10.93;;;6.80;;
79149;SDS011;68563;45.644;13.782;2023-06-05T01:38:48;9.32;;;7.43;;
79149;SDS011;68563;45.644;13.782;2023-06-05T01:41:14;14.30;;;8.15;;
79149;SDS011;68563;45.644;13.782;2023-06-05T01:43:40;13.45;;;8.90;;
79149;SDS011;68563;45.644;13.782;2023-06-05T01:46:07;12.82;;;7.88;;
79149;SDS011;68563;45.644;13.782;2023-06-05T01:48:34;11.93;;;7.47;;
79149;SDS011;68563;45.644;13.782;2023-06-05T01:51:00;16.75;;;7.43;;
79149;SDS011;68563;45.644;13.782;2023-06-05T01:53:27;11.50;;;8.00;;
79149;SDS011;68563;45.644;13.782;2023-06-05T01:55:53;11.75;;;7.60;;
79149;SDS011;68563;45.644;13.782;2023-06-05T01:58:22;11.82;;;8.27;;
79149;SDS011;68563;45.644;13.782;2023-06-05T02:00:51;15.77;;;8.35;;
79149;SDS011;68563;45.644;13.782;2023-06-05T02:03:22;13.68;;;8.30;;
79149;SDS011;68563;45.644;13.782;2023-06-05T02:05:48;12.18;;;8.50;;
79149;SDS011;68563;45.644;13.782;2023-06-05T02:08:13;13.57;;;8.50;;
79149;SDS011;68563;45.644;13.782;2023-06-05T02:10:44;14.73;;;9.25;;
79149;SDS011;68563;45.644;13.782;2023-06-05T02:13:12;12.55;;;8.60;;
79149;SDS011;68563;45.644;13.782;2023-06-05T02:15:40;10.20;;;8.55;;
79149;SDS011;68563;45.644;13.782;2023-06-05T02:18:06;13.80;;;8.15;;
79149;SDS011;68563;45.644;13.782;2023-06-05T02:20:33;11.65;;;8.40;;
79149;SDS011;68563;45.644;13.782;2023-06-05T02:23:00;12.82;;;8.25;;
79149;SDS011;68563;45.644;13.782;2023-06-05T02:25:25;10.73;;;8.07;;
79149;SDS011;68563;45.644;13.782;2023-06-05T02:27:52;11.00;;;8.32;;
79149;SDS011;68563;45.644;13.782;2023-06-05T02:30:17;9.55;;;7.82;;
79149;SDS011;68563;45.644;13.782;2023-06-05T02:32:43;9.82;;;7.95;;
79149;SDS011;68563;45.644;13.782;2023-06-05T02:35:09;11.73;;;7.88;;
79149;SDS011;68563;45.644;13.782;2023-06-05T02:37:35;11.75;;;8.00;;
79149;SDS011;68563;45.644;13.782;2023-06-05T02:40:08;9.90;;;7.80;;
79149;SDS011;68563;45.644;13.782;2023-06-05T02:42:35;13.30;;;7.82;;
79149;SDS011;68563;45.644;13.782;2023-06-05T02:45:01;10.63;;;8.20;;
79149;SDS011;68563;45.644;13.782;2023-06-05T02:47:27;11.63;;;8.18;;
79149;SDS011;68563;45.644;13.782;2023-06-05T02:49:54;10.10;;;8.43;;
79149;SDS011;68563;45.644;13.782;2023-06-05T02:52:19;9.63;;;7.93;;
79149;SDS011;68563;45.644;13.782;2023-06-05T02:54:45;9.93;;;7.88;;
79149;SDS011;68563;45.644;13.782;2023-06-05T02:57:11;8.70;;;7.70;;
79149;SDS011;68563;45.644;13.782;2023-06-05T02:59:37;7.97;;;7.18;;
79149;SDS011;68563;45.644;13.782;2023-06-05T03:02:07;9.13;;;7.90;;
79149;SDS011;68563;45.644;13.782;2023-06-05T03:04:32;8.43;;;7.20;;
79149;SDS011;68563;45.644;13.782;2023-06-05T03:06:58;10.60;;;8.15;;
79149;SDS011;68563;45.644;13.782;2023-06-05T03:09:24;9.93;;;7.40;;
79149;SDS011;68563;45.644;13.782;2023-06-05T03:11:50;8.88;;;7.80;;
79149;SDS011;68563;45.644;13.782;2023-06-05T03:14:15;8.48;;;7.38;;
79149;SDS011;68563;45.644;13.782;2023-06-05T03:16:40;9.27;;;7.40;;
79149;SDS011;68563;45.644;13.782;2023-06-05T03:19:09;7.78;;;6.43;;
79149;SDS011;68563;45.644;13.782;2023-06-05T03:21:36;7.32;;;6.25;;
79149;SDS011;68563;45.644;13.782;2023-06-05T03:24:02;7.85;;;6.82;;
79149;SDS011;68563;45.644;13.782;2023-06-05T03:26:29;7.82;;;6.28;;
79149;SDS011;68563;45.644;13.782;2023-06-05T03:28:54;7.28;;;6.43;;
79149;SDS011;68563;45.644;13.782;2023-06-05T03:31:20;7.78;;;6.43;;
79149;SDS011;68563;45.644;13.782;2023-06-05T03:33:45;7.45;;;6.45;;
79149;SDS011;68563;45.644;13.782;2023-06-05T03:36:10;7.25;;;6.45;;
79149;SDS011;68563;45.644;13.782;2023-06-05T03:38:36;9.15;;;6.25;;
79149;SDS011;68563;45.644;13.782;2023-06-05T03:41:01;8.18;;;6.40;;
79149;SDS011;68563;45.644;13.782;2023-06-05T03:43:26;7.03;;;5.95;;
79149;SDS011;68563;45.644;13.782;2023-06-05T03:45:52;6.85;;;5.63;;
79149;SDS011;68563;45.644;13.782;2023-06-05T03:48:18;7.63;;;5.00;;
79149;SDS011;68563;45.644;13.782;2023-06-05T03:50:46;6.47;;;5.68;;
79149;SDS011;68563;45.644;13.782;2023-06-05T03:53:12;9.63;;;6.10;;
79149;SDS011;68563;45.644;13.782;2023-06-05T03:55:38;6.43;;;5.55;;
79149;SDS011;68563;45.644;13.782;2023-06-05T03:58:10;7.15;;;5.70;;
79149;SDS011;68563;45.644;13.782;2023-06-05T04:00:48;6.20;;;5.43;;
79149;SDS011;68563;45.644;13.782;2023-06-05T04:03:14;6.72;;;5.53;;
79149;SDS011;68563;45.644;13.782;2023-06-05T04:05:39;6.53;;;4.82;;
79149;SDS011;68563;45.644;13.782;2023-06-05T04:08:05;7.60;;;5.65;;
79149;SDS011;68563;45.644;13.782;2023-06-05T04:10:31;5.97;;;5.30;;
79149;SDS011;68563;45.644;13.782;2023-06-05T04:12:57;5.93;;;5.32;;
79149;SDS011;68563;45.644;13.782;2023-06-05T04:15:23;7.43;;;5.50;;
79149;SDS011;68563;45.644;13.782;2023-06-05T04:17:49;7.43;;;5.13;;
79149;SDS011;68563;45.644;13.782;2023-06-05T04:20:14;7.43;;;5.60;;
79149;SDS011;68563;45.644;13.782;2023-06-05T04:22:40;7.63;;;5.22;;
79149;SDS011;68563;45.644;13.782;2023-06-05T04:25:07;5.95;;;5.32;;
79149;SDS011;68563;45.644;13.782;2023-06-05T04:27:35;6.07;;;5.47;;
79149;SDS011;68563;45.644;13.782;2023-06-05T04:30:03;6.03;;;5.38;;
79149;SDS011;68563;45.644;13.782;2023-06-05T04:32:32;7.80;;;5.20;;
79149;SDS011;68563;45.644;13.782;2023-06-05T04:35:02;5.57;;;5.03;;
79149;SDS011;68563;45.644;13.782;2023-06-05T04:37:31;6.88;;;5.40;;
79149;SDS011;68563;45.644;13.782;2023-06-05T04:40:00;8.38;;;5.18;;
79149;SDS011;68563;45.644;13.782;2023-06-05T04:42:30;7.50;;;5.25;;
79149;SDS011;68563;45.644;13.782;2023-06-05T04:44:57;6.35;;;5.63;;
79149;SDS011;68563;45.644;13.782;2023-06-05T04:47:23;6.18;;;5.30;;
79149;SDS011;68563;45.644;13.782;2023-06-05T04:49:49;6.68;;;4.78;;
79149;SDS011;68563;45.644;13.782;2023-06-05T04:52:17;6.60;;;4.93;;
79149;SDS011;68563;45.644;13.782;2023-06-05T04:54:43;6.68;;;5.43;;
79149;SDS011;68563;45.644;13.782;2023-06-05T04:57:09;7.47;;;5.80;;
79149;SDS011;68563;45.644;13.782;2023-06-05T04:59:36;6.50;;;5.65;;
79149;SDS011;68563;45.644;13.782;2023-06-05T05:02:02;7.57;;;5.85;;
79149;SDS011;68563;45.644;13.782;2023-06-05T05:04:28;9.85;;;6.18;;
79149;SDS011;68563;45.644;13.782;2023-06-05T05:06:55;8.05;;;6.75;;
79149;SDS011;68563;45.644;13.782;2023-06-05T05:09:23;7.20;;;6.03;;
79149;SDS011;68563;45.644;13.782;2023-06-05T05:11:48;11.40;;;7.47;;
79149;SDS011;68563;45.644;13.782;2023-06-05T05:14:14;7.47;;;6.05;;
79149;SDS011;68563;45.644;13.782;2023-06-05T05:16:40;8.48;;;6.60;;
79149;SDS011;68563;45.644;13.782;2023-06-05T05:19:07;7.53;;;5.65;;
79149;SDS011;68563;45.644;13.782;2023-06-05T05:21:33;10.02;;;7.60;;
79149;SDS011;68563;45.644;13.782;2023-06-05T05:23:58;7.57;;;6.05;;
79149;SDS011;68563;45.644;13.782;2023-06-05T05:26:23;10.20;;;6.45;;
79149;SDS011;68563;45.644;13.782;2023-06-05T05:28:49;6.72;;;6.00;;
79149;SDS011;68563;45.644;13.782;2023-06-05T05:31:14;9.52;;;6.78;;
79149;SDS011;68563;45.644;13.782;2023-06-05T05:33:41;8.35;;;6.32;;
79149;SDS011;68563;45.644;13.782;2023-06-05T05:36:06;8.93;;;6.63;;
79149;SDS011;68563;45.644;13.782;2023-06-05T05:38:31;9.80;;;6.78;;
79149;SDS011;68563;45.644;13.782;2023-06-05T05:40:57;9.13;;;6.72;;
79149;SDS011;68563;45.644;13.782;2023-06-05T05:43:22;10.95;;;7.10;;
79149;SDS011;68563;45.644;13.782;2023-06-05T05:45:47;10.57;;;6.28;;
79149;SDS011;68563;45.644;13.782;2023-06-05T05:48:13;9.85;;;8.00;;
79149;SDS011;68563;45.644;13.782;2023-06-05T05:50:39;8.15;;;6.80;;
79149;SDS011;68563;45.644;13.782;2023-06-05T05:53:05;8.80;;;7.03;;
79149;SDS011;68563;45.644;13.782;2023-06-05T05:55:31;10.95;;;7.70;;
79149;SDS011;68563;45.644;13.782;2023-06-05T05:57:56;9.10;;;7.38;;
79149;SDS011;68563;45.644;13.782;2023-06-05T06:00:22;9.45;;;7.60;;
79149;SDS011;68563;45.644;13.782;2023-06-05T06:02:47;9.43;;;7.05;;
79149;SDS011;68563;45.644;13.782;2023-06-05T06:05:12;7.68;;;6.85;;
79149;SDS011;68563;45.644;13.782;2023-06-05T06:07:38;10.10;;;6.90;;
79149;SDS011;68563;45.644;13.782;2023-06-05T06:10:05;8.63;;;6.70;;
79149;SDS011;68563;45.644;13.782;2023-06-05T06:12:33;8.40;;;6.78;;
79149;SDS011;68563;45.644;13.782;2023-06-05T06:14:59;7.30;;;6.50;;
79149;SDS011;68563;45.644;13.782;2023-06-05T06:17:24;8.88;;;6.60;;
79149;SDS011;68563;45.644;13.782;2023-06-05T06:19:50;8.63;;;6.95;;
79149;SDS011;68563;45.644;13.782;2023-06-05T06:22:15;8.00;;;6.38;;
79149;SDS011;68563;45.644;13.782;2023-06-05T06:24:41;7.82;;;6.35;;
79149;SDS011;68563;45.644;13.782;2023-06-05T06:27:10;7.07;;;5.68;;
79149;SDS011;68563;45.644;13.782;2023-06-05T06:32:11;8.27;;;6.50;;
79149;SDS011;68563;45.644;13.782;2023-06-05T06:34:37;8.55;;;5.78;;
79149;SDS011;68563;45.644;13.782;2023-06-05T06:37:02;6.70;;;6.03;;
79149;SDS011;68563;45.644;13.782;2023-06-05T06:39:28;11.80;;;6.22;;
79149;SDS011;68563;45.644;13.782;2023-06-05T06:41:53;8.07;;;5.97;;
79149;SDS011;68563;45.644;13.782;2023-06-05T06:44:19;7.88;;;6.22;;
79149;SDS011;68563;45.644;13.782;2023-06-05T06:46:44;7.18;;;6.10;;
79149;SDS011;68563;45.644;13.782;2023-06-05T06:49:10;9.88;;;6.50;;
79149;SDS011;68563;45.644;13.782;2023-06-05T06:51:35;7.18;;;6.38;;
79149;SDS011;68563;45.644;13.782;2023-06-05T06:54:02;9.02;;;6.78;;
79149;SDS011;68563;45.644;13.782;2023-06-05T06:56:27;8.25;;;6.55;;
79149;SDS011;68563;45.644;13.782;2023-06-05T06:58:53;9.00;;;6.55;;
79149;SDS011;68563;45.644;13.782;2023-06-05T07:01:19;8.13;;;6.70;;
79149;SDS011;68563;45.644;13.782;2023-06-05T07:03:45;8.65;;;6.80;;
79149;SDS011;68563;45.644;13.782;2023-06-05T07:06:10;9.20;;;7.38;;
79149;SDS011;68563;45.644;13.782;2023-06-05T07:08:37;13.25;;;7.57;;
79149;SDS011;68563;45.644;13.782;2023-06-05T07:11:02;10.43;;;6.20;;
79149;SDS011;68563;45.644;13.782;2023-06-05T07:13:28;7.35;;;6.50;;
79149;SDS011;68563;45.644;13.782;2023-06-05T07:15:54;8.68;;;5.95;;
79149;SDS011;68563;45.644;13.782;2023-06-05T07:18:20;9.13;;;6.15;;
79149;SDS011;68563;45.644;13.782;2023-06-05T07:20:46;7.22;;;6.30;;
79149;SDS011;68563;45.644;13.782;2023-06-05T07:23:12;10.68;;;7.63;;
79149;SDS011;68563;45.644;13.782;2023-06-05T07:25:38;7.70;;;6.40;;
79149;SDS011;68563;45.644;13.782;2023-06-05T07:28:08;8.55;;;5.82;;
79149;SDS011;68563;45.644;13.782;2023-06-05T07:30:36;9.27;;;6.63;;
79149;SDS011;68563;45.644;13.782;2023-06-05T07:33:02;8.13;;;6.18;;
79149;SDS011;68563;45.644;13.782;2023-06-05T07:35:28;8.05;;;6.43;;
79149;SDS011;68563;45.644;13.782;2023-06-05T07:37:54;7.53;;;6.45;;
79149;SDS011;68563;45.644;13.782;2023-06-05T07:40:19;8.35;;;5.75;;
79149;SDS011;68563;45.644;13.782;2023-06-05T07:42:45;9.32;;;6.53;;
79149;SDS011;68563;45.644;13.782;2023-06-05T07:45:11;7.15;;;5.85;;
79149;SDS011;68563;45.644;13.782;2023-06-05T07:47:36;8.77;;;5.53;;
79149;SDS011;68563;45.644;13.782;2023-06-05T07:50:02;8.20;;;6.97;;
79149;SDS011;68563;45.644;13.782;2023-06-05T07:54:57;9.88;;;6.97;;
79149;SDS011;68563;45.644;13.782;2023-06-05T07:57:23;9.02;;;7.53;;
79149;SDS011;68563;45.644;13.782;2023-06-05T07:59:53;9.52;;;7.60;;
79149;SDS011;68563;45.644;13.782;2023-06-05T08:02:21;7.32;;;6.50;;
79149;SDS011;68563;45.644;13.782;2023-06-05T08:04:48;9.90;;;7.22;;
79149;SDS011;68563;45.644;13.782;2023-06-05T08:07:13;10.02;;;7.15;;
79149;SDS011;68563;45.644;13.782;2023-06-05T08:09:40;10.50;;;7.28;;
79149;SDS011;68563;45.644;13.782;2023-06-05T08:12:06;9.60;;;7.07;;
79149;SDS011;68563;45.644;13.782;2023-06-05T08:14:33;10.13;;;6.88;;
79149;SDS011;68563;45.644;13.782;2023-06-05T08:16:59;10.63;;;7.07;;
79149;SDS011;68563;45.644;13.782;2023-06-05T08:19:24;8.40;;;6.00;;
79149;SDS011;68563;45.644;13.782;2023-06-05T08:21:50;7.07;;;6.00;;
79149;SDS011;68563;45.644;13.782;2023-06-05T08:24:17;6.43;;;5.47;;
79149;SDS011;68563;45.644;13.782;2023-06-05T08:26:44;6.28;;;4.88;;
79149;SDS011;68563;45.644;13.782;2023-06-05T08:29:10;5.82;;;4.80;;
79149;SDS011;68563;45.644;13.782;2023-06-05T08:31:37;5.45;;;4.15;;
79149;SDS011;68563;45.644;13.782;2023-06-05T08:34:02;4.50;;;4.05;;
79149;SDS011;68563;45.644;13.782;2023-06-05T08:36:28;5.50;;;3.90;;
79149;SDS011;68563;45.644;13.782;2023-06-05T08:38:53;4.90;;;3.80;;
79149;SDS011;68563;45.644;13.782;2023-06-05T08:41:19;5.00;;;3.70;;
79149;SDS011;68563;45.644;13.782;2023-06-05T08:43:46;4.28;;;3.63;;
79149;SDS011;68563;45.644;13.782;2023-06-05T08:46:12;4.38;;;3.78;;
79149;SDS011;68563;45.644;13.782;2023-06-05T08:48:42;4.57;;;3.70;;
79149;SDS011;68563;45.644;13.782;2023-06-05T08:51:13;5.38;;;4.07;;
79149;SDS011;68563;45.644;13.782;2023-06-05T08:53:41;5.05;;;4.22;;
79149;SDS011;68563;45.644;13.782;2023-06-05T08:56:10;10.00;;;6.25;;
79149;SDS011;68563;45.644;13.782;2023-06-05T08:58:36;4.97;;;4.20;;
79149;SDS011;68563;45.644;13.782;2023-06-05T09:01:02;5.60;;;3.92;;
79149;SDS011;68563;45.644;13.782;2023-06-05T09:03:28;6.07;;;4.07;;
79149;SDS011;68563;45.644;13.782;2023-06-05T09:05:53;8.07;;;4.45;;
79149;SDS011;68563;45.644;13.782;2023-06-05T09:08:28;5.32;;;4.20;;
79149;SDS011;68563;45.644;13.782;2023-06-05T09:13:54;6.10;;;4.18;;
79149;SDS011;68563;45.644;13.782;2023-06-05T09:16:21;6.55;;;4.18;;
79149;SDS011;68563;45.644;13.782;2023-06-05T09:18:54;3.85;;;3.33;;
79149;SDS011;68563;45.644;13.782;2023-06-05T09:21:21;4.00;;;3.58;;
79149;SDS011;68563;45.644;13.782;2023-06-05T09:24:15;5.00;;;3.60;;
79149;SDS011;68563;45.644;13.782;2023-06-05T09:27:00;7.18;;;3.70;;
79149;SDS011;68563;45.644;13.782;2023-06-05T09:29:36;4.03;;;3.25;;
79149;SDS011;68563;45.644;13.782;2023-06-05T09:32:05;4.97;;;3.30;;
79149;SDS011;68563;45.644;13.782;2023-06-05T09:34:32;5.63;;;3.03;;
79149;SDS011;68563;45.644;13.782;2023-06-05T09:37:05;4.72;;;3.40;;
79149;SDS011;68563;45.644;13.782;2023-06-05T09:39:33;7.22;;;3.20;;
79149;SDS011;68563;45.644;13.782;2023-06-05T09:42:00;3.58;;;3.22;;
79149;SDS011;68563;45.644;13.782;2023-06-05T09:44:26;4.15;;;2.95;;
79149;SDS011;68563;45.644;13.782;2023-06-05T09:46:53;4.13;;;2.58;;
79149;SDS011;68563;45.644;13.782;2023-06-05T09:51:51;4.43;;;3.20;;
79149;SDS011;68563;45.644;13.782;2023-06-05T09:54:17;2.97;;;2.70;;
79149;SDS011;68563;45.644;13.782;2023-06-05T09:56:48;4.70;;;3.20;;
79149;SDS011;68563;45.644;13.782;2023-06-05T09:59:16;5.65;;;3.40;;
79149;SDS011;68563;45.644;13.782;2023-06-05T10:01:45;4.85;;;3.28;;
79149;SDS011;68563;45.644;13.782;2023-06-05T10:04:13;5.30;;;3.60;;
79149;SDS011;68563;45.644;13.782;2023-06-05T10:06:41;3.60;;;2.83;;
79149;SDS011;68563;45.644;13.782;2023-06-05T10:09:08;3.75;;;3.35;;
79149;SDS011;68563;45.644;13.782;2023-06-05T10:11:34;5.07;;;3.38;;
79149;SDS011;68563;45.644;13.782;2023-06-05T10:14:00;5.68;;;3.95;;
79149;SDS011;68563;45.644;13.782;2023-06-05T10:16:27;5.18;;;3.80;;
79149;SDS011;68563;45.644;13.782;2023-06-05T10:18:54;7.20;;;3.95;;
79149;SDS011;68563;45.644;13.782;2023-06-05T10:21:21;4.93;;;4.45;;
79149;SDS011;68563;45.644;13.782;2023-06-05T10:23:48;6.40;;;4.70;;
79149;SDS011;68563;45.644;13.782;2023-06-05T10:39:22;3.55;;;2.88;;
79149;SDS011;68563;45.644;13.782;2023-06-05T10:41:50;3.70;;;3.05;;
79149;SDS011;68563;45.644;13.782;2023-06-05T10:44:16;3.20;;;2.90;;
79149;SDS011;68563;45.644;13.782;2023-06-05T10:46:41;3.83;;;2.80;;
79149;SDS011;68563;45.644;13.782;2023-06-05T10:49:11;3.28;;;2.95;;
79149;SDS011;68563;45.644;13.782;2023-06-05T10:59:25;4.78;;;3.17;;
79149;SDS011;68563;45.644;13.782;2023-06-05T11:07:13;5.57;;;3.30;;
79149;SDS011;68563;45.644;13.782;2023-06-05T11:12:26;4.03;;;3.17;;
79149;SDS011;68563;45.644;13.782;2023-06-05T11:15:54;3.50;;;3.17;;
79149;SDS011;68563;45.644;13.782;2023-06-05T11:20:57;5.50;;;3.28;;
79149;SDS011;68563;45.644;13.782;2023-06-05T11:23:23;4.32;;;3.58;;
79149;SDS011;68563;45.644;13.782;2023-06-05T11:25:55;4.03;;;3.33;;
79149;SDS011;68563;45.644;13.782;2023-06-05T11:31:07;6.93;;;3.50;;
79149;SDS011;68563;45.644;13.782;2023-06-05T11:33:33;9.35;;;3.97;;
79149;SDS011;68563;45.644;13.782;2023-06-05T11:36:04;7.35;;;3.58;;
79149;SDS011;68563;45.644;13.782;2023-06-05T11:38:30;8.10;;;3.75;;
79149;SDS011;68563;45.644;13.782;2023-06-05T11:40:56;6.10;;;4.20;;
79149;SDS011;68563;45.644;13.782;2023-06-05T11:43:22;5.53;;;4.00;;
79149;SDS011;68563;45.644;13.782;2023-06-05T11:45:55;7.10;;;4.03;;
79149;SDS011;68563;45.644;13.782;2023-06-05T11:48:21;6.25;;;4.05;;
79149;SDS011;68563;45.644;13.782;2023-06-05T11:51:20;7.57;;;4.30;;
79149;SDS011;68563;45.644;13.782;2023-06-05T11:53:43;6.90;;;4.57;;
79149;SDS011;68563;45.644;13.782;2023-06-05T11:56:14;5.90;;;4.47;;
79149;SDS011;68563;45.644;13.782;2023-06-05T11:58:42;7.40;;;4.00;;
79149;SDS011;68563;45.644;13.782;2023-06-05T12:03:46;4.15;;;3.67;;
79149;SDS011;68563;45.644;13.782;2023-06-05T12:06:13;6.13;;;3.50;;
79149;SDS011;68563;45.644;13.782;2023-06-05T12:08:40;6.80;;;3.58;;
79149;SDS011;68563;45.644;13.782;2023-06-05T12:11:22;5.78;;;3.90;;
79149;SDS011;68563;45.644;13.782;2023-06-05T12:13:54;8.35;;;4.28;;
79149;SDS011;68563;45.644;13.782;2023-06-05T12:16:31;7.68;;;3.78;;
79149;SDS011;68563;45.644;13.782;2023-06-05T12:18:57;5.55;;;3.72;;
79149;SDS011;68563;45.644;13.782;2023-06-05T12:21:24;3.47;;;3.08;;
79149;SDS011;68563;45.644;13.782;2023-06-05T12:23:51;5.13;;;3.53;;
79149;SDS011;68563;45.644;13.782;2023-06-05T12:26:17;3.80;;;2.95;;
79149;SDS011;68563;45.644;13.782;2023-06-05T12:28:43;3.72;;;2.92;;
79149;SDS011;68563;45.644;13.782;2023-06-05T12:31:10;2.95;;;2.45;;
79149;SDS011;68563;45.644;13.782;2023-06-05T12:33:48;4.00;;;2.75;;
79149;SDS011;68563;45.644;13.782;2023-06-05T12:36:14;3.47;;;2.70;;
79149;SDS011;68563;45.644;13.782;2023-06-05T12:38:41;3.85;;;2.58;;
79149;SDS011;68563;45.644;13.782;2023-06-05T12:41:08;3.35;;;2.90;;
79149;SDS011;68563;45.644;13.782;2023-06-05T12:43:34;3.28;;;2.75;;
79149;SDS011;68563;45.644;13.782;2023-06-05T12:46:00;5.68;;;3.28;;
79149;SDS011;68563;45.644;13.782;2023-06-05T12:48:26;4.65;;;3.45;;
79149;SDS011;68563;45.644;13.782;2023-06-05T12:50:52;4.30;;;3.25;;
79149;SDS011;68563;45.644;13.782;2023-06-05T12:53:18;4.70;;;3.50;;
79149;SDS011;68563;45.644;13.782;2023-06-05T12:55:43;4.70;;;3.55;;
79149;SDS011;68563;45.644;13.782;2023-06-05T12:58:10;4.97;;;3.13;;
79149;SDS011;68563;45.644;13.782;2023-06-05T13:00:35;5.72;;;2.90;;
79149;SDS011;68563;45.644;13.782;2023-06-05T13:03:01;5.78;;;3.50;;
79149;SDS011;68563;45.644;13.782;2023-06-05T13:05:28;5.60;;;3.42;;
79149;SDS011;68563;45.644;13.782;2023-06-05T13:07:54;5.30;;;3.55;;
79149;SDS011;68563;45.644;13.782;2023-06-05T13:10:20;5.05;;;2.95;;
79149;SDS011;68563;45.644;13.782;2023-06-05T13:12:45;4.50;;;3.28;;
79149;SDS011;68563;45.644;13.782;2023-06-05T13:15:11;3.78;;;3.30;;
79149;SDS011;68563;45.644;13.782;2023-06-05T13:17:37;5.05;;;3.60;;
79149;SDS011;68563;45.644;13.782;2023-06-05T13:20:03;6.35;;;3.55;;
79149;SDS011;68563;45.644;13.782;2023-06-05T13:22:33;10.50;;;4.03;;
79149;SDS011;68563;45.644;13.782;2023-06-05T13:25:00;5.25;;;3.50;;
79149;SDS011;68563;45.644;13.782;2023-06-05T13:27:25;5.15;;;3.65;;
79149;SDS011;68563;45.644;13.782;2023-06-05T13:29:51;4.72;;;3.70;;
79149;SDS011;68563;45.644;13.782;2023-06-05T13:32:16;5.20;;;4.00;;
79149;SDS011;68563;45.644;13.782;2023-06-05T13:34:42;4.55;;;3.85;;
79149;SDS011;68563;45.644;13.782;2023-06-05T13:37:07;5.72;;;3.72;;
79149;SDS011;68563;45.644;13.782;2023-06-05T13:39:32;4.10;;;3.30;;
79149;SDS011;68563;45.644;13.782;2023-06-05T13:41:58;5.95;;;3.53;;
79149;SDS011;68563;45.644;13.782;2023-06-05T13:44:23;4.75;;;3.85;;
79149;SDS011;68563;45.644;13.782;2023-06-05T13:46:48;6.90;;;3.28;;
79149;SDS011;68563;45.644;13.782;2023-06-05T13:49:14;6.60;;;3.38;;
79149;SDS011;68563;45.644;13.782;2023-06-05T13:51:40;4.88;;;3.42;;
79149;SDS011;68563;45.644;13.782;2023-06-05T13:54:06;3.88;;;3.42;;
79149;SDS011;68563;45.644;13.782;2023-06-05T13:56:32;5.13;;;3.65;;
79149;SDS011;68563;45.644;13.782;2023-06-05T13:58:57;3.80;;;3.25;;
79149;SDS011;68563;45.644;13.782;2023-06-05T14:01:23;6.68;;;3.58;;
79149;SDS011;68563;45.644;13.782;2023-06-05T14:03:49;5.30;;;3.50;;
79149;SDS011;68563;45.644;13.782;2023-06-05T14:06:18;4.93;;;3.47;;
79149;SDS011;68563;45.644;13.782;2023-06-05T14:08:45;4.50;;;3.08;;
79149;SDS011;68563;45.644;13.782;2023-06-05T14:11:11;6.50;;;3.80;;
79149;SDS011;68563;45.644;13.782;2023-06-05T14:13:36;6.00;;;3.95;;
79149;SDS011;68563;45.644;13.782;2023-06-05T14:16:02;4.45;;;3.50;;
79149;SDS011;68563;45.644;13.782;2023-06-05T14:18:28;4.20;;;3.33;;
79149;SDS011;68563;45.644;13.782;2023-06-05T14:20:54;4.57;;;3.40;;
79149;SDS011;68563;45.644;13.782;2023-06-05T14:23:20;4.35;;;3.05;;
79149;SDS011;68563;45.644;13.782;2023-06-05T14:25:48;4.60;;;3.50;;
79149;SDS011;68563;45.644;13.782;2023-06-05T14:28:16;6.90;;;3.83;;
79149;SDS011;68563;45.644;13.782;2023-06-05T14:30:44;6.10;;;3.97;;
79149;SDS011;68563;45.644;13.782;2023-06-05T14:33:10;5.68;;;3.75;;
79149;SDS011;68563;45.644;13.782;2023-06-05T14:35:35;5.03;;;3.67;;
79149;SDS011;68563;45.644;13.782;2023-06-05T14:38:00;6.05;;;3.70;;
79149;SDS011;68563;45.644;13.782;2023-06-05T14:40:26;6.85;;;3.65;;
79149;SDS011;68563;45.644;13.782;2023-06-05T14:42:51;8.18;;;4.07;;
79149;SDS011;68563;45.644;13.782;2023-06-05T14:45:17;6.45;;;4.30;;
79149;SDS011;68563;45.644;13.782;2023-06-05T14:47:43;5.30;;;3.90;;
79149;SDS011;68563;45.644;13.782;2023-06-05T14:50:10;9.38;;;4.38;;
79149;SDS011;68563;45.644;13.782;2023-06-05T14:52:35;5.63;;;4.10;;
79149;SDS011;68563;45.644;13.782;2023-06-05T14:55:03;5.80;;;3.90;;
79149;SDS011;68563;45.644;13.782;2023-06-05T14:57:29;6.43;;;3.83;;
79149;SDS011;68563;45.644;13.782;2023-06-05T14:59:55;6.20;;;3.65;;
79149;SDS011;68563;45.644;13.782;2023-06-05T15:02:20;4.53;;;3.42;;
79149;SDS011;68563;45.644;13.782;2023-06-05T15:04:47;5.32;;;3.47;;
79149;SDS011;68563;45.644;13.782;2023-06-05T15:07:17;5.22;;;3.13;;
79149;SDS011;68563;45.644;13.782;2023-06-05T15:09:47;5.43;;;3.35;;
79149;SDS011;68563;45.644;13.782;2023-06-05T15:12:13;4.00;;;3.13;;
79149;SDS011;68563;45.644;13.782;2023-06-05T15:14:39;4.38;;;3.22;;
79149;SDS011;68563;45.644;13.782;2023-06-05T15:17:04;5.60;;;4.63;;
79149;SDS011;68563;45.644;13.782;2023-06-05T15:19:30;3.50;;;3.20;;